createdAt,value
2022-10-30T00:02:55.902Z,25.45
2022-10-30T00:07:18.127Z,29.92
2022-10-30T00:11:41.753Z,28.05
2022-10-30T00:16:07.630Z,30.42
2022-10-30T00:20:29.706Z,27.50
2022-10-30T00:24:51.590Z,28.33
2022-10-30T00:29:13.471Z,26.50
2022-10-30T00:33:35.554Z,29.15
2022-10-30T00:38:01.356Z,21.45
2022-10-30T00:42:29.249Z,23.45
2022-10-30T00:46:51.363Z,28.70
2022-10-30T00:51:13.833Z,33.65
2022-10-30T00:55:41.984Z,32.22
2022-10-30T01:00:07.918Z,26.50
2022-10-30T01:04:34.283Z,26.67
2022-10-30T01:08:59.850Z,26.95
2022-10-30T01:13:23.966Z,21.92
2022-10-30T01:18:31.685Z,28.75
2022-10-30T01:23:41.985Z,25.25
2022-10-30T01:28:15.560Z,28.98
2022-10-30T01:33:12.980Z,26.90
2022-10-30T01:38:05.737Z,25.88
2022-10-30T01:42:56.950Z,24.02
2022-10-30T01:48:19.306Z,22.45
2022-10-30T01:53:17.471Z,25.33
2022-10-30T01:58:06.689Z,22.15
2022-10-30T02:02:33.044Z,21.20
2022-10-30T02:06:55.235Z,20.13
2022-10-30T02:11:18.384Z,19.48
2022-10-30T02:15:42.878Z,16.27
2022-10-30T02:20:05.567Z,22.15
2022-10-30T02:24:28.909Z,21.52
2022-10-30T02:28:51.810Z,23.58
2022-10-30T02:33:13.886Z,29.92
2022-10-30T02:37:36.416Z,26.33
2022-10-30T02:41:58.325Z,23.75
2022-10-30T02:46:20.854Z,32.95
2022-10-30T02:50:44.062Z,19.88
2022-10-30T02:55:06.369Z,30.48
2022-10-30T02:59:29.233Z,16.88
2022-10-30T03:03:52.922Z,17.58
2022-10-30T03:08:14.833Z,19.65
2022-10-30T03:12:36.741Z,20.65
2022-10-30T03:16:58.808Z,20.10
2022-10-30T03:21:23.251Z,22.20
2022-10-30T03:25:44.859Z,20.83
2022-10-30T03:30:07.775Z,18.95
2022-10-30T03:34:29.800Z,20.40
2022-10-30T03:38:58.406Z,23.85
2022-10-30T03:43:21.904Z,20.88
2022-10-30T03:47:43.996Z,23.88
2022-10-30T03:52:05.995Z,22.00
2022-10-30T03:56:27.980Z,16.90
2022-10-30T04:00:54.495Z,17.27
2022-10-30T04:05:19.456Z,22.67
2022-10-30T04:09:42.368Z,19.13
2022-10-30T04:14:04.494Z,14.43
2022-10-30T04:18:27.788Z,20.75
2022-10-30T04:22:56.335Z,15.45
2022-10-30T04:27:18.304Z,16.10
2022-10-30T04:31:40.460Z,18.92
2022-10-30T04:36:02.591Z,20.42
2022-10-30T04:40:33.742Z,14.10
2022-10-30T04:44:59.157Z,17.90
2022-10-30T04:49:21.044Z,26.42
2022-10-30T04:53:43.614Z,20.40
2022-10-30T04:58:09.976Z,17.05
2022-10-30T05:02:37.498Z,21.45
2022-10-30T05:06:59.634Z,20.77
2022-10-30T05:11:21.820Z,14.18
2022-10-30T05:15:43.903Z,21.63
2022-10-30T05:20:07.313Z,16.80
2022-10-30T05:24:28.999Z,16.55
2022-10-30T05:28:50.880Z,14.45
2022-10-30T05:33:15.939Z,15.75
2022-10-30T05:37:38.195Z,16.33
2022-10-30T05:42:00.289Z,15.77
2022-10-30T05:46:33.874Z,19.17
2022-10-30T05:51:10.599Z,18.40
2022-10-30T05:55:36.651Z,15.68
2022-10-30T06:00:09.266Z,12.70
2022-10-30T06:04:37.120Z,17.63
2022-10-30T06:09:04.061Z,18.88
2022-10-30T06:13:33.592Z,15.07
2022-10-30T06:18:00.904Z,11.77
2022-10-30T06:23:00.271Z,12.00
2022-10-30T06:27:29.793Z,16.42
2022-10-30T06:31:51.707Z,18.88
2022-10-30T06:36:13.699Z,23.42
2022-10-30T06:40:36.185Z,19.75
2022-10-30T06:45:14.182Z,28.55
2022-10-30T06:49:36.227Z,18.10
2022-10-30T06:53:58.287Z,15.75
2022-10-30T06:58:39.062Z,17.60
2022-10-30T07:03:08.910Z,23.17
2022-10-30T07:07:31.069Z,23.02
2022-10-30T07:11:56.669Z,19.90
2022-10-30T07:16:18.769Z,21.20
2022-10-30T07:20:44.415Z,25.58
2022-10-30T07:25:06.630Z,20.27
2022-10-30T07:29:48.712Z,19.23
2022-10-30T07:34:16.793Z,15.55
2022-10-30T07:38:58.362Z,24.02
2022-10-30T07:43:25.519Z,21.75
2022-10-30T07:47:57.386Z,19.50
2022-10-30T07:52:42.847Z,16.80
2022-10-30T07:57:04.525Z,22.13
2022-10-30T08:01:49.949Z,17.30
2022-10-30T08:06:27.001Z,15.02
2022-10-30T08:10:49.360Z,20.75
2022-10-30T08:15:12.479Z,16.40
2022-10-30T08:19:34.786Z,17.60
2022-10-30T08:23:56.781Z,16.63
2022-10-30T08:28:21.798Z,15.60
2022-10-30T08:32:43.790Z,17.73
2022-10-30T08:37:24.139Z,15.93
2022-10-30T08:41:46.300Z,13.68
2022-10-30T08:46:08.014Z,20.63
2022-10-30T08:50:32.235Z,17.50
2022-10-30T08:54:54.428Z,17.25
2022-10-30T08:59:21.288Z,18.98
2022-10-30T09:03:46.421Z,15.00
2022-10-30T09:08:28.878Z,18.65
2022-10-30T09:13:02.540Z,18.98
2022-10-30T09:17:25.588Z,16.20
2022-10-30T09:21:47.419Z,15.02
2022-10-30T09:26:09.636Z,13.77
2022-10-30T09:30:45.634Z,14.38
2022-10-30T09:35:11.840Z,14.40
2022-10-30T09:39:35.336Z,15.85
2022-10-30T09:44:32.296Z,15.80
2022-10-30T09:49:15.287Z,17.40
2022-10-30T09:54:10.719Z,17.63
2022-10-30T09:58:47.646Z,19.05
2022-10-30T10:03:25.544Z,17.25
2022-10-30T10:08:27.141Z,17.80
2022-10-30T10:13:38.503Z,15.57
2022-10-30T10:18:02.768Z,18.90
2022-10-30T10:22:36.770Z,12.32
2022-10-30T10:27:36.680Z,20.35
2022-10-30T10:32:24.354Z,18.17
2022-10-30T10:37:03.901Z,18.63
2022-10-30T10:42:10.428Z,16.05
2022-10-30T10:47:07.607Z,17.27
2022-10-30T10:51:58.106Z,14.25
2022-10-30T10:56:22.654Z,15.30
2022-10-30T11:00:46.019Z,15.43
2022-10-30T11:05:41.919Z,16.92
2022-10-30T11:10:14.622Z,17.85
2022-10-30T11:14:38.006Z,13.35
2022-10-30T11:19:03.996Z,17.13
2022-10-30T11:23:32.625Z,17.92
2022-10-30T11:27:57.632Z,15.27
2022-10-30T11:32:23.024Z,12.50
2022-10-30T11:36:46.666Z,13.80
2022-10-30T11:41:12.476Z,19.80
2022-10-30T11:45:40.354Z,11.55
2022-10-30T11:50:27.337Z,15.43
2022-10-30T11:54:56.218Z,14.20
2022-10-30T11:59:22.889Z,16.90
2022-10-30T12:03:44.835Z,15.50
2022-10-30T12:08:09.562Z,16.83
2022-10-30T12:12:41.675Z,19.15
2022-10-30T12:17:04.764Z,13.68
2022-10-30T12:21:29.611Z,23.50
2022-10-30T12:26:11.124Z,17.98
2022-10-30T12:30:39.256Z,15.38
2022-10-30T12:35:09.614Z,20.10
2022-10-30T12:40:01.717Z,16.85
2022-10-30T12:44:52.249Z,20.33
2022-10-30T12:49:43.401Z,20.40
2022-10-30T12:54:36.757Z,21.38
2022-10-30T12:59:46.487Z,20.20
2022-10-30T13:04:17.948Z,15.90
2022-10-30T13:09:18.545Z,16.45
2022-10-30T13:13:48.413Z,16.83
2022-10-30T13:18:20.191Z,20.52
2022-10-30T13:22:52.386Z,19.23
2022-10-30T13:27:31.410Z,15.10
2022-10-30T13:32:34.320Z,14.68
2022-10-30T13:37:08.994Z,22.55
2022-10-30T13:41:56.872Z,13.15
2022-10-30T13:46:32.546Z,15.98
2022-10-30T13:51:40.983Z,17.67
2022-10-30T13:56:04.397Z,19.23
2022-10-30T14:00:57.232Z,18.02
2022-10-30T14:05:31.117Z,14.88
2022-10-30T14:10:07.437Z,28.95
2022-10-30T14:14:31.768Z,17.27
2022-10-30T14:19:01.905Z,18.75
2022-10-30T14:23:38.288Z,17.95
2022-10-30T14:28:00.641Z,17.02
2022-10-30T14:32:22.544Z,18.17
2022-10-30T14:36:44.486Z,13.23
2022-10-30T14:41:41.131Z,20.23
2022-10-30T14:46:36.920Z,17.33
2022-10-30T14:51:21.420Z,15.57
2022-10-30T14:56:08.027Z,14.38
2022-10-30T15:00:35.828Z,19.85
2022-10-30T15:05:29.540Z,14.18
2022-10-30T15:10:05.505Z,13.52
2022-10-30T15:14:52.989Z,14.32
2022-10-30T15:19:16.629Z,17.17
2022-10-30T15:23:41.590Z,20.38
2022-10-30T15:28:05.029Z,18.17
2022-10-30T15:32:26.976Z,16.88
2022-10-30T15:36:48.555Z,13.32
2022-10-30T15:41:11.094Z,25.63
2022-10-30T15:45:42.622Z,15.02
2022-10-30T15:50:05.497Z,46.45
2022-10-30T15:54:29.281Z,29.85
2022-10-30T15:58:57.775Z,25.75
2022-10-30T16:03:19.594Z,18.95
2022-10-30T16:07:46.103Z,20.50
2022-10-30T16:12:11.779Z,22.75
2022-10-30T16:16:34.433Z,22.20
2022-10-30T16:21:03.019Z,25.52
2022-10-30T16:25:25.202Z,22.90
2022-10-30T16:29:56.099Z,17.05
2022-10-30T16:34:36.760Z,24.08
2022-10-30T16:38:59.405Z,22.58
2022-10-30T16:43:33.132Z,21.38
2022-10-30T16:48:09.223Z,22.73
2022-10-30T16:52:38.261Z,27.63
2022-10-30T16:57:03.031Z,28.77
2022-10-30T17:01:28.382Z,26.42
2022-10-30T17:06:07.663Z,27.40
2022-10-30T17:10:37.405Z,23.38
2022-10-30T17:15:12.790Z,28.65
2022-10-30T17:19:39.230Z,36.75
2022-10-30T17:24:01.277Z,30.77
2022-10-30T17:28:34.690Z,28.42
2022-10-30T17:32:57.599Z,32.00
2022-10-30T17:37:19.942Z,30.20
2022-10-30T17:41:43.124Z,22.55
2022-10-30T17:46:04.977Z,29.40
2022-10-30T17:50:27.032Z,29.73
2022-10-30T17:54:49.163Z,32.63
2022-10-30T17:59:11.182Z,27.30
2022-10-30T18:03:33.546Z,31.25
2022-10-30T18:07:55.210Z,31.50
2022-10-30T18:12:17.755Z,28.83
2022-10-30T18:16:39.800Z,33.70
2022-10-30T18:21:01.798Z,31.88
2022-10-30T18:25:35.147Z,37.33
2022-10-30T18:29:57.088Z,31.08
2022-10-30T18:34:22.643Z,31.55
2022-10-30T18:38:44.527Z,28.20
2022-10-30T18:43:12.178Z,27.85
2022-10-30T18:47:34.157Z,25.95
2022-10-30T18:51:56.203Z,28.08
2022-10-30T18:56:20.586Z,20.83
2022-10-30T19:01:09.900Z,24.13
2022-10-30T19:05:48.200Z,27.90
2022-10-30T19:10:09.992Z,30.92
2022-10-30T19:14:32.531Z,24.67
2022-10-30T19:18:54.692Z,28.08
2022-10-30T19:23:19.183Z,31.25
2022-10-30T19:27:41.227Z,28.67
2022-10-30T19:32:03.377Z,29.20
2022-10-30T19:36:27.417Z,24.75
2022-10-30T19:40:50.115Z,25.63
2022-10-30T19:45:13.268Z,28.08
2022-10-30T19:49:35.534Z,28.00
2022-10-30T19:53:57.257Z,28.60
2022-10-30T19:58:22.224Z,28.30
2022-10-30T20:02:48.140Z,31.58
2022-10-30T20:07:10.058Z,26.85
2022-10-30T20:11:32.186Z,31.58
2022-10-30T20:15:55.686Z,32.35
2022-10-30T20:20:40.381Z,27.67
2022-10-30T20:25:02.307Z,30.42
2022-10-30T20:29:25.224Z,29.70
2022-10-30T20:33:47.349Z,29.27
2022-10-30T20:38:29.332Z,27.25
2022-10-30T20:42:52.633Z,24.67
2022-10-30T20:47:15.614Z,29.05
2022-10-30T20:51:37.561Z,25.38
2022-10-30T20:55:59.912Z,31.58
2022-10-30T21:00:21.688Z,24.65
2022-10-30T21:04:43.761Z,26.30
2022-10-30T21:09:06.057Z,26.40
2022-10-30T21:13:29.020Z,25.35
2022-10-30T21:17:51.283Z,23.20
2022-10-30T21:22:13.244Z,25.58
2022-10-30T21:26:36.599Z,29.33
2022-10-30T21:31:07.759Z,20.80
2022-10-30T21:35:29.830Z,19.15
2022-10-30T21:39:52.055Z,25.55
2022-10-30T21:44:15.587Z,23.48
2022-10-30T21:48:38.100Z,29.63
2022-10-30T21:53:00.479Z,26.05
2022-10-30T21:57:22.395Z,27.27
2022-10-30T22:01:44.603Z,27.27
2022-10-30T22:06:12.941Z,35.33
2022-10-30T22:10:34.962Z,31.15
2022-10-30T22:14:56.899Z,30.15
2022-10-30T22:19:18.835Z,27.70
2022-10-30T22:23:41.819Z,30.48
2022-10-30T22:28:03.930Z,33.95
2022-10-30T22:32:26.312Z,28.30
2022-10-30T22:36:48.046Z,28.40
2022-10-30T22:41:16.631Z,28.15
2022-10-30T22:45:38.370Z,30.70
2022-10-30T22:50:00.175Z,29.90
2022-10-30T22:54:22.292Z,28.55
2022-10-30T22:58:46.368Z,29.83
2022-10-30T23:03:08.301Z,33.13
2022-10-30T23:07:30.365Z,28.52
2022-10-30T23:11:52.441Z,26.85
2022-10-30T23:16:21.930Z,27.20
2022-10-30T23:20:46.570Z,28.95
2022-10-30T23:25:08.541Z,27.55
2022-10-30T23:29:30.313Z,25.40
2022-10-30T23:33:57.958Z,24.58
2022-10-30T23:38:19.667Z,27.85
2022-10-30T23:42:41.763Z,25.27
2022-10-30T23:47:03.921Z,24.48
2022-10-30T23:51:25.635Z,27.45
2022-10-30T23:55:55.183Z,26.08
